Time;durP1;ratioP1;P1;durP2;ratioP2;P2;SDS_P1;SDS_P2;PMS_P1;PMS_P2;Temp;Humidity;BMP_temperature;BMP_pressure;BME280_temperature;BME280_humidity;BME280_pressure;Samples;Min_cycle;Max_cycle;Signal;HPM_P1;HPM_P2
2022/08/31 00:05:33;;;;;;;2.17;1.50;;;;;;;17.23;100.00;102200.44;5034934;28;20040;-73
2022/08/31 00:07:59;;;;;;;4.93;1.50;;;;;;;17.24;100.00;102209.28;5034567;28;20074;-74
2022/08/31 00:10:27;;;;;;;5.35;1.40;;;;;;;17.22;100.00;102205.75;5031706;28;20053;-73
2022/08/31 00:12:52;;;;;;;2.10;1.60;;;;;;;17.22;100.00;102211.06;5033092;28;20109;-74
2022/08/31 00:15:20;;;;;;;2.83;1.85;;;;;;;17.18;100.00;102204.81;5036420;28;20132;-74
2022/08/31 00:17:46;;;;;;;5.57;1.45;;;;;;;17.18;100.00;102205.69;5053023;28;20075;-74
2022/08/31 00:20:13;;;;;;;4.47;1.33;;;;;;;17.11;100.00;102198.53;5041909;28;20431;-73
2022/08/31 00:22:39;;;;;;;5.82;1.42;;;;;;;17.06;100.00;102207.34;5041428;28;20060;-73
2022/08/31 00:25:04;;;;;;;1.67;1.35;;;;;;;17.04;100.00;102199.34;5040328;28;20052;-74
2022/08/31 00:27:30;;;;;;;3.78;1.30;;;;;;;17.06;100.00;102202.91;5036375;28;20419;-74
2022/08/31 00:29:55;;;;;;;7.45;1.50;;;;;;;17.06;100.00;102202.91;5032511;28;20025;-74
2022/08/31 00:32:21;;;;;;;3.72;1.42;;;;;;;17.07;100.00;102199.38;5032756;28;20457;-74
2022/08/31 00:34:46;;;;;;;3.38;1.20;;;;;;;17.06;100.00;102202.91;5033019;28;20047;-75
2022/08/31 00:37:11;;;;;;;2.17;1.45;;;;;;;17.02;100.00;102194.00;5039054;28;20051;-74
2022/08/31 00:39:37;;;;;;;2.67;1.20;;;;;;;16.96;100.00;102203.69;5038005;28;20021;-74
2022/08/31 00:42:07;;;;;;;2.33;1.40;;;;;;;16.94;100.00;102208.97;5036085;28;20582;-74
2022/08/31 00:44:33;;;;;;;1.70;1.10;;;;;;;16.92;100.00;102201.84;5043429;28;20044;-75
2022/08/31 00:46:58;;;;;;;2.20;1.40;;;;;;;16.92;100.00;102201.84;5036227;28;20021;-74
2022/08/31 00:49:27;;;;;;;2.45;1.30;;;;;;;16.78;100.00;102201.63;5045699;28;20079;-75
2022/08/31 00:52:04;;;;;;;3.58;1.25;;;;;;;16.80;100.00;102200.78;5038656;28;20030;-74
2022/08/31 00:54:38;;;;;;;4.95;1.40;;;;;;;16.76;100.00;102190.97;5048759;28;20435;-75
2022/08/31 00:57:05;;;;;;;2.63;1.20;;;;;;;16.71;100.00;102192.69;5043247;28;20025;-75
2022/08/31 00:59:31;;;;;;;3.13;1.40;;;;;;;16.63;100.00;102202.31;5048102;28;20437;-73
2022/08/31 01:01:57;;;;;;;2.92;1.63;;;;;;;16.66;100.00;102199.72;5044540;28;20029;-74
2022/08/31 01:04:22;;;;;;;4.50;1.40;;;;;;;16.63;100.00;102210.31;5036601;28;20396;-74
2022/08/31 01:06:49;;;;;;;6.05;1.10;;;;;;;16.62;100.00;102208.53;5037987;28;20034;-75
2022/08/31 01:09:15;;;;;;;2.10;1.30;;;;;;;16.64;100.00;102205.03;5040315;28;20485;-73
2022/08/31 01:11:42;;;;;;;2.00;1.25;;;;;;;16.58;100.00;102206.72;5043997;28;20021;-74
2022/08/31 01:14:08;;;;;;;2.78;1.50;;;;;;;16.51;100.00;102211.06;5037604;28;20034;-74
2022/08/31 01:16:46;;;;;;;2.28;1.10;;;;;;;16.48;100.00;102206.59;5046255;28;20025;-74
2022/08/31 01:19:28;;;;;;;4.05;1.38;;;;;;;16.46;100.00;102202.13;5050538;28;20025;-75
2022/08/31 01:22:04;;;;;;;4.28;1.45;;;;;;;16.41;100.00;102201.16;5046539;28;20033;-74
2022/08/31 01:24:30;;;;;;;3.33;1.30;;;;;;;16.35;100.00;102199.31;5049113;28;20025;-75
2022/08/31 01:27:02;;;;;;;2.22;1.60;;;;;;;16.32;100.00;102201.94;5044672;28;20028;-75
2022/08/31 01:29:28;;;;;;;1.33;1.13;;;;;;;16.30;100.00;102196.56;5035870;28;20021;-75
2022/08/31 01:31:53;;;;;;;4.22;1.42;;;;;;;16.30;100.00;102201.00;5035242;28;20108;-74
2022/08/31 01:34:19;;;;;;;1.25;1.15;;;;;;;16.29;100.00;102209.81;5035338;28;20097;-74
2022/08/31 01:36:46;;;;;;;2.50;1.30;;;;;;;16.28;100.00;102208.06;5036074;28;20029;-75
2022/08/31 01:39:12;;;;;;;1.90;1.30;;;;;;;16.24;100.00;102200.91;5035131;28;20389;-74
2022/08/31 01:41:42;;;;;;;1.95;1.65;;;;;;;16.18;100.00;102207.91;5036947;28;20032;-74
2022/08/31 01:44:10;;;;;;;3.05;1.35;;;;;;;16.21;100.00;102203.50;5036022;28;20026;-73
2022/08/31 01:46:35;;;;;;;3.28;1.33;;;;;;;16.21;100.00;102200.84;5038495;28;20068;-74
2022/08/31 01:49:01;;;;;;;2.83;1.30;;;;;;;16.15;100.00;102196.34;5035554;28;20061;-75
2022/08/31 01:51:26;;;;;;;4.32;1.83;;;;;;;16.12;100.00;102196.31;5035476;28;20021;-75
2022/08/31 01:53:53;;;;;;;5.47;1.80;;;;;;;16.08;100.00;102200.66;5042487;28;20028;-75
2022/08/31 01:56:22;;;;;;;3.38;1.33;;;;;;;16.08;100.00;102200.66;5042299;28;20031;-75
2022/08/31 01:58:49;;;;;;;3.67;1.35;;;;;;;16.01;100.00;102204.97;5041921;28;20083;-73
2022/08/31 02:01:15;;;;;;;2.45;2.05;;;;;;;15.98;100.00;102199.63;5034580;28;20025;-75
2022/08/31 02:03:41;;;;;;;3.20;1.50;;;;;;;15.97;100.00;102207.59;5036147;28;20048;-76
2022/08/31 02:06:11;;;;;;;2.67;1.58;;;;;;;15.95;100.00;102199.59;5039050;28;20037;-74
2022/08/31 02:08:38;;;;;;;2.22;1.10;;;;;;;15.94;100.00;102202.19;5049935;28;20076;-75
2022/08/31 02:11:04;;;;;;;5.07;1.45;;;;;;;15.92;100.00;102207.50;5046045;28;20060;-74
2022/08/31 02:13:30;;;;;;;2.95;1.85;;;;;;;15.88;100.00;102212.72;5045977;28;20037;-74
2022/08/31 02:15:55;;;;;;;1.60;1.33;;;;;;;15.88;100.00;102203.00;5052801;28;20353;-75
2022/08/31 02:18:21;;;;;;;4.85;1.60;;;;;;;15.85;100.00;102210.91;5042285;28;20026;-75
2022/08/31 02:20:46;;;;;;;1.63;1.13;;;;;;;15.86;100.00;102210.06;5034191;28;20474;-73
2022/08/31 02:23:11;;;;;;;2.08;1.58;;;;;;;15.81;100.00;102207.31;5035538;28;20464;-74
2022/08/31 02:25:37;;;;;;;4.18;1.40;;;;;;;15.71;100.00;102202.69;5041958;28;20028;-74
2022/08/31 02:28:02;;;;;;;3.45;1.50;;;;;;;15.65;100.00;102205.22;5034902;28;20033;-74
2022/08/31 02:30:28;;;;;;;2.53;1.38;;;;;;;15.64;100.00;102211.41;5033986;28;20035;-74
2022/08/31 02:32:53;;;;;;;5.75;1.70;;;;;;;15.62;100.00;102207.84;5035248;28;20018;-73
2022/08/31 02:35:19;;;;;;;1.85;1.30;;;;;;;15.62;100.00;102200.75;5041861;28;20035;-73
2022/08/31 02:37:45;;;;;;;3.63;1.40;;;;;;;15.64;100.00;102203.44;5033962;28;20021;-74
2022/08/31 02:40:11;;;;;;;2.00;1.20;;;;;;;15.61;100.00;102204.31;5034103;28;20049;-75
2022/08/31 02:42:37;;;;;;;3.35;1.35;;;;;;;15.55;100.00;102200.66;5039350;28;20465;-74
2022/08/31 02:45:04;;;;;;;1.95;1.38;;;;;;;15.52;100.00;102207.66;5049972;28;20114;-74
2022/08/31 02:47:30;;;;;;;3.15;1.55;;;;;;;15.50;100.00;102212.06;5044607;28;20107;-74
2022/08/31 02:49:56;;;;;;;2.55;1.30;;;;;;;15.46;100.00;102204.94;5041209;28;20491;-74
2022/08/31 02:52:21;;;;;;;3.05;1.20;;;;;;;15.49;100.00;102210.28;5033744;28;20025;-74
2022/08/31 02:54:46;;;;;;;2.38;1.27;;;;;;;15.47;100.00;102208.47;5035296;28;20029;-74
2022/08/31 02:57:12;;;;;;;1.60;1.40;;;;;;;15.47;100.00;102204.03;5034179;28;20017;-74
2022/08/31 02:59:37;;;;;;;2.33;1.33;;;;;;;15.47;100.00;102200.50;5033138;28;20451;-74
2022/08/31 03:02:03;;;;;;;2.97;1.60;;;;;;;15.42;100.00;102204.81;5047015;28;20100;-74
2022/08/31 03:04:28;;;;;;;1.30;1.20;;;;;;;15.42;100.00;102202.16;5053353;28;20083;-75
2022/08/31 03:06:54;;;;;;;4.30;1.60;;;;;;;15.43;100.00;102204.84;5048890;28;20025;-74
2022/08/31 03:09:20;;;;;;;2.42;1.30;;;;;;;15.45;100.00;102213.75;5036078;28;20095;-74
2022/08/31 03:11:45;;;;;;;3.55;1.20;;;;;;;15.47;100.00;102206.69;5033737;28;20531;-73
2022/08/31 03:14:10;;;;;;;1.65;1.30;;;;;;;15.45;100.00;102212.81;5047735;28;20536;-73
2022/08/31 03:16:39;;;;;;;3.08;1.40;;;;;;;15.44;100.00;102203.09;5033494;28;20029;-74
2022/08/31 03:19:04;;;;;;;5.03;1.70;;;;;;;15.42;100.00;102200.41;5046366;28;20487;-74
2022/08/31 03:21:30;;;;;;;1.85;1.73;;;;;;;15.38;100.00;102201.22;5053728;28;20024;-74
2022/08/31 03:23:55;;;;;;;1.50;1.23;;;;;;;15.36;100.00;102205.59;5037731;28;20115;-75
2022/08/31 03:26:20;;;;;;;1.85;1.40;;;;;;;15.39;100.00;102205.66;5055457;28;20133;-75
2022/08/31 03:28:46;;;;;;;2.20;1.30;;;;;;;15.41;100.00;102201.28;5033692;28;20045;-74
2022/08/31 03:31:11;;;;;;;3.35;1.40;;;;;;;15.40;100.00;102202.16;5035761;28;20057;-74
2022/08/31 03:33:37;;;;;;;4.47;1.38;;;;;;;15.40;100.00;102209.22;5052983;28;20413;-75
2022/08/31 03:36:03;;;;;;;5.15;1.35;;;;;;;15.30;100.00;102208.13;5043644;28;20060;-75
2022/08/31 03:38:29;;;;;;;2.60;1.33;;;;;;;15.37;100.00;102214.44;5033390;28;20089;-75
2022/08/31 03:40:55;;;;;;;2.40;1.48;;;;;;;15.34;100.00;102215.28;5033678;28;20105;-74
2022/08/31 03:43:20;;;;;;;1.60;1.30;;;;;;;15.32;100.00;102215.25;5041659;28;20116;-74
2022/08/31 03:45:47;;;;;;;3.50;1.55;;;;;;;15.33;100.00;102218.81;5033413;28;20043;-75
2022/08/31 03:48:13;;;;;;;6.30;1.48;;;;;;;15.30;100.00;102224.97;5043859;28;20465;-74
2022/08/31 03:50:39;;;;;;;3.00;1.30;;;;;;;15.34;100.00;102216.19;5033405;28;20025;-74
2022/08/31 03:53:06;;;;;;;3.55;1.33;;;;;;;15.35;100.00;102222.38;5035031;28;20104;-75
2022/08/31 03:55:33;;;;;;;1.67;1.48;;;;;;;15.37;100.00;102218.00;5053147;28;20033;-74
2022/08/31 03:57:59;;;;;;;1.92;1.10;;;;;;;15.33;100.00;102224.13;5042733;28;20021;-74
2022/08/31 04:00:26;;;;;;;2.00;1.50;;;;;;;15.29;100.00;102227.59;5033110;28;20385;-75
2022/08/31 04:02:52;;;;;;;3.10;1.40;;;;;;;15.24;100.00;102229.25;5043240;28;20030;-75
2022/08/31 04:05:17;;;;;;;3.70;1.60;;;;;;;15.20;100.00;102232.69;5033256;28;20113;-73
2022/08/31 04:07:43;;;;;;;1.50;1.38;;;;;;;15.20;100.00;102230.06;5037026;28;20021;-74
2022/08/31 04:10:13;;;;;;;3.22;1.65;;;;;;;15.13;100.00;102232.56;5033319;28;20049;-74
2022/08/31 04:12:39;;;;;;;3.05;1.50;;;;;;;15.11;100.00;102236.97;5037390;28;20116;-75
2022/08/31 04:15:05;;;;;;;2.33;1.58;;;;;;;15.09;100.00;102228.06;5037090;28;20100;-75
2022/08/31 04:17:31;;;;;;;6.00;2.22;;;;;;;15.06;100.00;102230.66;5043229;28;20362;-75
2022/08/31 04:19:57;;;;;;;1.50;1.40;;;;;;;15.07;100.00;102229.81;5036684;28;20038;-74
2022/08/31 04:22:22;;;;;;;3.75;1.40;;;;;;;15.06;100.00;102229.78;5045270;28;20033;-75
2022/08/31 04:24:47;;;;;;;4.55;1.45;;;;;;;15.07;100.00;102236.84;5041707;28;20461;-73
2022/08/31 04:27:13;;;;;;;1.60;1.50;;;;;;;15.07;100.00;102232.47;5059911;28;20029;-74
2022/08/31 04:29:38;;;;;;;3.22;1.70;;;;;;;15.06;100.00;102238.63;5051551;28;20025;-74
2022/08/31 04:32:04;;;;;;;4.13;1.70;;;;;;;15.01;100.00;102237.63;5045227;28;20465;-75
2022/08/31 04:34:29;;;;;;;2.85;1.50;;;;;;;14.96;100.00;102233.97;5036532;28;20061;-75
2022/08/31 04:36:54;;;;;;;2.22;1.60;;;;;;;14.95;100.00;102242.81;5043220;28;20045;-75
2022/08/31 04:39:21;;;;;;;4.40;1.77;;;;;;;14.92;100.00;102233.03;5036841;28;20108;-74
2022/08/31 04:41:47;;;;;;;3.10;1.30;;;;;;;14.88;100.00;102235.56;5043405;28;21060;-75
2022/08/31 04:44:12;;;;;;;5.63;1.58;;;;;;;14.83;100.00;102243.44;5042055;28;20045;-75
2022/08/31 04:46:38;;;;;;;8.32;2.22;;;;;;;14.79;100.00;102245.13;5038721;28;20063;-76
2022/08/31 04:49:06;;;;;;;3.00;1.75;;;;;;;14.76;100.00;102250.38;5036991;28;20032;-75
2022/08/31 04:51:34;;;;;;;2.58;1.30;;;;;;;14.75;100.00;102243.25;5036787;28;20029;-75
2022/08/31 04:54:01;;;;;;;2.55;1.08;;;;;;;14.73;100.00;102246.75;5040223;28;20017;-76
2022/08/31 04:56:30;;;;;;;3.28;2.20;;;;;;;14.75;100.00;102243.25;5049353;28;20036;-74
2022/08/31 04:59:01;;;;;;;1.35;1.20;;;;;;;14.77;100.00;102243.28;5041506;28;20033;-73
2022/08/31 05:01:30;;;;;;;2.50;1.15;;;;;;;14.76;100.00;102245.06;5044065;28;20017;-75
2022/08/31 05:03:57;;;;;;;7.38;1.50;;;;;;;14.73;100.00;102239.69;5050969;28;20029;-75
2022/08/31 05:06:28;;;;;;;2.13;1.33;;;;;;;14.72;100.00;102251.16;5041042;28;20044;-73
2022/08/31 05:08:57;;;;;;;1.05;0.95;;;;;;;14.71;100.00;102252.00;5050672;28;20052;-75
2022/08/31 05:11:24;;;;;;;1.48;0.90;;;;;;;14.73;100.00;102252.03;5052480;28;20036;-73
2022/08/31 05:13:51;;;;;;;1.95;1.10;;;;;;;14.72;100.00;102251.16;5040151;28;20038;-73
2022/08/31 05:16:17;;;;;;;1.98;1.00;;;;;;;14.77;100.00;102249.50;5045173;28;21910;-72
2022/08/31 05:18:45;;;;;;;4.57;1.00;;;;;;;14.81;100.00;102245.16;5044172;28;20117;-74
2022/08/31 05:21:14;;;;;;;1.48;0.65;;;;;;;14.83;100.00;102254.91;5044524;28;20029;-73
2022/08/31 05:23:41;;;;;;;1.60;0.70;;;;;;;14.89;100.00;102258.56;5045002;28;20120;-73
2022/08/31 05:26:07;;;;;;;4.60;1.23;;;;;;;14.88;100.00;102251.47;5041100;28;20116;-73
2022/08/31 05:28:34;;;;;;;3.30;0.90;;;;;;;14.89;100.00;102258.56;5040979;28;20052;-74
2022/08/31 05:31:00;;;;;;;1.58;1.00;;;;;;;14.88;100.00;102251.47;5042946;28;20461;-74
2022/08/31 05:33:27;;;;;;;1.73;0.90;;;;;;;14.88;100.00;102262.06;5052653;28;20028;-74
2022/08/31 05:35:52;;;;;;;1.20;0.68;;;;;;;14.92;100.00;102263.94;5046220;28;20061;-74
2022/08/31 05:38:18;;;;;;;2.20;0.60;;;;;;;14.95;100.00;102271.97;5038155;28;20056;-73
2022/08/31 05:40:50;;;;;;;1.80;0.73;;;;;;;14.97;100.00;102265.81;5038101;28;20063;-73
2022/08/31 05:43:16;;;;;;;2.35;0.70;;;;;;;15.03;100.00;102262.44;5047796;28;20086;-73
2022/08/31 05:45:42;;;;;;;0.68;0.57;;;;;;;15.10;100.00;102264.31;5043153;28;20021;-74
2022/08/31 05:48:07;;;;;;;1.58;0.60;;;;;;;15.14;100.00;102266.19;5037380;28;20037;-73
2022/08/31 05:50:33;;;;;;;1.27;0.85;;;;;;;15.17;100.00;102270.66;5038825;28;20108;-75
2022/08/31 05:52:59;;;;;;;1.52;0.70;;;;;;;15.20;100.00;102270.72;5047544;28;20044;-74
2022/08/31 05:55:24;;;;;;;11.40;0.90;;;;;;;15.23;100.00;102265.47;5043191;28;20033;-74
2022/08/31 05:57:51;;;;;;;0.82;0.77;;;;;;;15.21;100.00;102266.31;5038874;28;20072;-73
2022/08/31 06:00:17;;;;;;;1.00;0.80;;;;;;;15.28;100.00;102268.22;5047439;28;20432;-73
2022/08/31 06:02:42;;;;;;;1.70;0.70;;;;;;;15.30;100.00;102271.78;5038793;28;20090;-73
2022/08/31 06:05:08;;;;;;;2.45;0.90;;;;;;;15.28;100.00;102270.88;5040143;28;20033;-75
2022/08/31 06:07:33;;;;;;;1.52;0.70;;;;;;;15.32;100.00;102275.38;5040081;28;20571;-73
2022/08/31 06:09:59;;;;;;;4.03;1.00;;;;;;;15.35;100.00;102270.13;5034764;28;20042;-73
2022/08/31 06:12:25;;;;;;;6.05;0.93;;;;;;;15.35;100.00;102270.13;5043302;28;20068;-74
2022/08/31 06:14:50;;;;;;;3.50;1.10;;;;;;;15.39;100.00;102277.28;5035638;28;20048;-73
2022/08/31 06:17:16;;;;;;;1.02;0.80;;;;;;;15.40;100.00;102267.56;5033533;28;20036;-73
2022/08/31 06:19:42;;;;;;;4.93;0.80;;;;;;;15.47;100.00;102267.69;5034958;28;20104;-73
2022/08/31 06:22:07;;;;;;;1.90;0.85;;;;;;;15.51;100.00;102272.19;5035829;28;20373;-74
2022/08/31 06:24:32;;;;;;;0.93;0.82;;;;;;;15.57;100.00;102274.09;5035240;28;20029;-73
2022/08/31 06:26:58;;;;;;;1.83;1.35;;;;;;;15.59;100.00;102268.81;5039354;28;20025;-74
2022/08/31 06:29:25;;;;;;;2.72;0.73;;;;;;;15.62;100.00;102271.53;5046171;28;20040;-74
2022/08/31 06:31:50;;;;;;;0.75;0.68;;;;;;;15.72;100.00;102275.22;5045111;28;20151;-75
2022/08/31 06:34:18;;;;;;;0.85;0.60;;;;;;;15.76;100.00;102278.00;5034443;28;20481;-75
2022/08/31 06:36:43;;;;;;;0.85;0.70;;;;;;;15.78;100.00;102278.91;5042485;28;20363;-76
2022/08/31 06:39:11;;;;;;;1.25;0.68;;;;;;;15.83;100.00;102282.56;5037666;28;20030;-76
2022/08/31 06:41:39;;;;;;;6.07;0.88;;;;;;;15.88;100.00;102276.44;5049319;28;20480;-75
2022/08/31 06:44:07;;;;;;;0.77;0.60;;;;;;;15.86;100.00;102281.72;5043453;28;20036;-73
2022/08/31 06:46:34;;;;;;;0.63;0.63;;;;;;;15.94;100.00;102289.81;5039443;28;20025;-75
2022/08/31 06:49:00;;;;;;;2.00;0.70;;;;;;;15.98;100.00;102281.94;5038297;28;20055;-74
2022/08/31 06:51:26;;;;;;;2.28;0.55;;;;;;;16.04;100.00;102283.81;5043207;28;20437;-75
2022/08/31 06:53:52;;;;;;;1.05;0.80;;;;;;;16.06;100.00;102292.69;5038746;28;20381;-74
2022/08/31 06:56:21;;;;;;;2.03;0.90;;;;;;;16.14;100.00;102292.81;5050703;28;20055;-74
2022/08/31 06:58:48;;;;;;;1.30;0.90;;;;;;;16.19;100.00;102294.66;5041580;28;20405;-75
2022/08/31 07:01:16;;;;;;;1.35;0.90;;;;;;;16.20;100.00;102295.59;5036678;28;20029;-73
2022/08/31 07:03:42;;;;;;;2.28;0.80;;;;;;;16.28;100.00;102296.59;5035173;28;20018;-73
2022/08/31 07:06:41;;;;;;;1.30;0.93;;;;;;;16.35;100.00;102297.59;5037262;28;20388;-73
2022/08/31 07:09:10;;;;;;;3.15;0.80;;;;;;;16.38;100.00;102289.66;5045123;28;20057;-73
2022/08/31 07:11:41;;;;;;;3.13;0.85;;;;;;;16.46;100.00;102297.75;5037420;28;20075;-73
2022/08/31 07:14:08;;;;;;;3.03;0.90;;;;;;;16.54;100.00;102305.88;5040595;28;20033;-73
2022/08/31 07:16:34;;;;;;;1.20;0.88;;;;;;;16.60;100.00;102311.25;5033923;28;20029;-72
2022/08/31 07:19:05;;;;;;;4.22;0.77;;;;;;;16.65;100.00;102298.94;5045189;28;20029;-75
2022/08/31 07:21:33;;;;;;;2.20;0.95;;;;;;;16.72;100.00;102295.47;5033842;28;20032;-76
2022/08/31 07:24:02;;;;;;;2.20;0.90;;;;;;;16.78;100.00;102298.25;5033944;28;20022;-75
2022/08/31 07:26:31;;;;;;;1.35;1.00;;;;;;;16.83;100.00;102304.53;5050728;28;20025;-75
2022/08/31 07:28:58;;;;;;;2.28;0.70;;;;;;;16.92;100.00;102303.78;5040207;28;20469;-76
2022/08/31 07:31:31;;;;;;;0.77;0.60;;;;;;;16.97;100.00;102310.06;5052909;28;20031;-75
2022/08/31 07:33:57;;;;;;;0.52;0.52;;;;;;;17.03;100.00;102301.25;5039590;28;20024;-75
2022/08/31 07:36:24;;;;;;;4.00;0.68;;;;;;;17.05;100.00;102304.84;5044686;28;20373;-74
2022/08/31 07:44:21;;;;;;;0.90;0.60;;;;;;;17.27;100.00;102297.13;5041515;28;20466;-72
2022/08/31 07:46:48;;;;;;;2.03;0.73;;;;;;;17.34;100.00;102296.34;5056479;28;20032;-72
2022/08/31 07:49:14;;;;;;;0.80;0.40;;;;;;;17.38;100.00;102295.50;5038859;28;20025;-73
2022/08/31 07:51:44;;;;;;;1.88;0.63;;;;;;;17.43;100.00;102301.78;5048305;28;20048;-75
2022/08/31 07:54:12;;;;;;;4.75;0.70;;;;;;;17.51;100.00;102299.16;5055519;28;20679;-76
2022/08/31 07:56:41;;;;;;;2.35;0.65;;;;;;;17.59;100.00;102297.47;5057080;28;20025;-74
2022/08/31 07:59:07;;;;;;;46.63;2.08;;;;;;;17.67;100.00;102305.56;5040782;28;20400;-75
2022/08/31 08:01:36;;;;;;;3.33;0.50;;;;;;;17.73;100.00;102302.97;5038039;28;20021;-75
2022/08/31 08:04:02;;;;;;;5.20;1.15;;;;;;;17.80;99.92;102312.81;5046822;28;20025;-75
2022/08/31 08:06:28;;;;;;;4.82;0.70;;;;;;;17.87;99.64;102309.31;5055617;28;20024;-76
2022/08/31 08:08:56;;;;;;;1.35;0.80;;;;;;;17.88;97.97;102307.56;5056909;28;20053;-76
2022/08/31 08:11:21;;;;;;;3.35;0.80;;;;;;;17.91;98.35;102306.69;5056968;28;20477;-76
2022/08/31 08:13:48;;;;;;;1.67;0.75;;;;;;;17.95;98.43;102308.56;5045843;28;20079;-76
2022/08/31 08:16:14;;;;;;;5.78;0.60;;;;;;;17.98;97.85;102300.56;5038972;28;20056;-75
2022/08/31 08:18:40;;;;;;;5.07;0.60;;;;;;;18.11;96.41;102301.56;5037092;28;20473;-75
2022/08/31 08:21:06;;;;;;;4.03;0.60;;;;;;;18.14;97.48;102310.47;5047104;28;20021;-75
2022/08/31 08:23:31;;;;;;;1.40;0.80;;;;;;;18.22;96.32;102309.66;5056191;28;20051;-75
2022/08/31 08:25:59;;;;;;;4.75;0.77;;;;;;;18.31;97.09;102307.97;5063825;28;20017;-76
2022/08/31 08:28:26;;;;;;;4.28;0.75;;;;;;;18.40;98.55;102317.78;5041777;28;20033;-75
2022/08/31 08:30:53;;;;;;;1.85;0.95;;;;;;;18.45;98.48;102321.41;5036191;28;20029;-75
2022/08/31 08:33:20;;;;;;;1.00;0.60;;;;;;;18.48;96.44;102313.41;5054435;28;20071;-76
2022/08/31 08:35:59;;;;;;;2.28;0.88;;;;;;;18.56;96.38;102321.47;5054034;28;20034;-75
2022/08/31 08:38:30;;;;;;;1.83;0.70;;;;;;;18.66;96.19;102317.09;5036550;28;20026;-75
2022/08/31 08:40:57;;;;;;;3.13;0.77;;;;;;;18.64;95.20;102325.09;5036526;28;20385;-76
2022/08/31 08:43:30;;;;;;;2.25;0.60;;;;;;;18.74;95.18;102320.69;5035837;28;20037;-76
2022/08/31 08:45:56;;;;;;;7.60;0.98;;;;;;;18.72;93.97;102317.16;5037606;28;20465;-75
2022/08/31 08:48:25;;;;;;;2.85;0.85;;;;;;;18.77;94.06;102318.03;5036384;28;20131;-75
2022/08/31 08:50:52;;;;;;;2.83;0.85;;;;;;;18.83;94.88;102319.88;5035895;28;20033;-75
2022/08/31 08:53:21;;;;;;;2.78;0.77;;;;;;;18.95;94.01;102321.72;5039312;28;20104;-76
2022/08/31 08:55:47;;;;;;;2.83;0.70;;;;;;;19.04;92.83;102322.69;5034376;28;20465;-75
2022/08/31 08:58:18;;;;;;;1.77;0.63;;;;;;;19.12;91.68;102322.72;5035269;28;20029;-76
2022/08/31 09:00:49;;;;;;;1.65;0.60;;;;;;;19.26;91.19;102324.56;5038826;28;20056;-76
2022/08/31 09:03:43;;;;;;;1.13;0.90;;;;;;;19.35;91.14;102320.13;5056126;28;20078;-76
2022/08/31 09:06:11;;;;;;;;;;;;;;;19.49;89.55;102327.31;5053250;28;20056;-74
2022/08/31 09:08:57;;;;;;;1.10;0.70;;;;;;;19.62;90.10;102322.91;5055697;28;19920;-76
2022/08/31 09:11:38;;;;;;;2.72;0.75;;;;;;;19.76;89.03;102325.59;5038945;28;20441;-76
2022/08/31 09:14:21;;;;;;;2.25;0.73;;;;;;;19.85;88.20;102321.19;5036117;28;20029;-76
2022/08/31 09:17:04;;;;;;;1.35;0.75;;;;;;;20.03;88.02;102328.34;5037230;28;20037;-74
2022/08/31 09:19:57;;;;;;;;;;;;;;;20.14;87.14;102336.34;5036355;28;20056;-76
2022/08/31 09:22:18;;;;;;;1.70;0.75;;;;;;;20.28;87.31;102330.13;5036847;28;20289;-75
2022/08/31 09:24:43;;;;;;;7.38;0.90;;;;;;;20.36;86.59;102336.38;5039766;28;20022;-76
2022/08/31 09:27:16;;;;;;;1.08;0.70;;;;;;;20.49;86.94;102338.13;5058213;28;20044;-76
2022/08/31 09:29:45;;;;;;;6.75;0.85;;;;;;;20.62;86.33;102332.78;5056035;28;20052;-75
2022/08/31 09:32:22;;;;;;;1.95;0.60;;;;;;;20.72;85.00;102331.91;5035310;28;20500;-76
2022/08/31 09:35:03;;;;;;;1.88;0.90;;;;;;;20.89;84.65;102334.56;5035757;28;20021;-75
2022/08/31 09:37:39;;;;;;;1.63;0.90;;;;;;;20.93;84.04;102330.06;5036355;28;20033;-76
2022/08/31 09:40:26;;;;;;;1.35;1.00;;;;;;;21.04;81.56;102325.59;5035293;28;20033;-75
2022/08/31 09:43:13;;;;;;;2.92;0.80;;;;;;;21.12;81.28;102321.09;5046732;28;20123;-74
2022/08/31 09:46:04;;;;;;;4.35;1.10;;;;;;;21.19;77.13;102325.53;5044515;28;20045;-75
2022/08/31 09:48:47;;;;;;;6.03;1.10;;;;;;;21.26;77.29;102320.16;5035299;28;20110;-75
2022/08/31 09:51:22;;;;;;;;;;;;;;;21.38;77.58;102325.47;5035606;28;20028;-74
2022/08/31 09:56:49;;;;;;;5.63;0.90;;;;;;;21.58;74.87;102317.31;5037010;28;20094;-75
2022/08/31 09:59:48;;;;;;;1.80;0.80;;;;;;;21.72;76.46;102318.13;5039919;28;20035;-75
2022/08/31 10:02:25;;;;;;;2.97;0.85;;;;;;;21.84;73.52;102317.19;5040546;28;20045;-74
2022/08/31 10:04:59;;;;;;;5.18;0.80;;;;;;;21.96;72.83;102316.22;5034348;28;20373;-74
2022/08/31 10:07:48;;;;;;;4.88;1.20;;;;;;;22.03;73.63;102317.03;5034434;28;20092;-74
2022/08/31 10:10:21;;;;;;;1.50;0.90;;;;;;;22.12;74.00;102316.94;5034405;28;20046;-75
2022/08/31 10:12:56;;;;;;;5.20;0.80;;;;;;;22.21;71.83;102316.88;5033949;28;20112;-75
2022/08/31 10:15:24;;;;;;;1.85;0.90;;;;;;;22.28;73.54;102306.13;5042188;28;20035;-75
2022/08/31 10:18:02;;;;;;;2.15;0.88;;;;;;;22.37;72.47;102304.25;5053670;28;20032;-74
2022/08/31 10:20:34;;;;;;;3.80;1.10;;;;;;;22.52;71.18;102308.59;5052820;28;20040;-74
2022/08/31 10:23:21;;;;;;;1.85;1.05;;;;;;;22.56;71.92;102302.28;5050017;28;20041;-74
2022/08/31 10:25:57;;;;;;;5.38;0.80;;;;;;;22.76;69.59;102298.50;5055765;28;20029;-74
2022/08/31 10:28:39;;;;;;;0.70;0.70;;;;;;;22.87;71.95;102301.03;5066334;28;20496;-75
2022/08/31 10:31:22;;;;;;;3.33;1.52;;;;;;;23.04;70.47;102299.06;5037714;28;20424;-75
2022/08/31 10:37:02;;;;;;;4.32;1.13;;;;;;;23.11;69.40;102294.50;5034345;28;20048;-74
2022/08/31 10:39:51;;;;;;;4.88;1.60;;;;;;;23.28;67.37;102285.34;5034290;28;20122;-73
2022/08/31 10:42:31;;;;;;;2.60;0.80;;;;;;;23.40;65.83;102293.28;5034053;28;20461;-73
2022/08/31 10:45:09;;;;;;;4.78;0.95;;;;;;;23.58;67.96;102290.31;5047748;28;20120;-74
2022/08/31 10:47:46;;;;;;;3.55;0.93;;;;;;;23.69;66.75;102271.31;5047151;28;20389;-74
2022/08/31 10:50:17;;;;;;;6.68;0.75;;;;;;;23.90;68.09;102283.59;5044940;28;20021;-74
2022/08/31 10:52:54;;;;;;;2.65;1.10;;;;;;;23.89;66.20;102273.72;5035543;28;20530;-74
2022/08/31 10:55:45;;;;;;;4.63;1.27;;;;;;;23.87;65.67;102278.19;5041097;28;20025;-74
2022/08/31 10:58:29;;;;;;;1.75;1.00;;;;;;;23.96;66.42;102282.59;5038887;28;20029;-75
2022/08/31 11:01:03;;;;;;;6.25;1.20;;;;;;;24.05;65.47;102289.59;5033182;28;20044;-74
2022/08/31 11:03:41;;;;;;;3.45;1.10;;;;;;;24.19;65.86;102287.56;5039178;28;20136;-75
2022/08/31 11:06:18;;;;;;;6.60;1.10;;;;;;;24.34;65.42;102283.72;5051315;28;20041;-75
2022/08/31 11:09:13;;;;;;;1.52;1.00;;;;;;;24.58;64.62;102289.56;5033678;28;20063;-74
2022/08/31 11:11:58;;;;;;;9.30;1.30;;;;;;;24.40;63.80;102277.34;5038363;28;20473;-74
2022/08/31 11:14:29;;;;;;;7.20;1.10;;;;;;;24.79;64.31;102290.97;5053545;28;20033;-74
2022/08/31 11:17:01;;;;;;;5.22;1.35;;;;;;;24.97;63.71;102287.00;5052143;28;20107;-74
2022/08/31 11:19:49;;;;;;;2.55;1.10;;;;;;;24.97;61.36;102291.53;5041590;28;20033;-76
2022/08/31 11:22:27;;;;;;;1.10;1.00;;;;;;;25.20;59.75;102289.25;5046529;28;20043;-74
2022/08/31 11:25:16;;;;;;;5.80;1.13;;;;;;;25.29;61.57;102289.97;5039608;28;20024;-74
2022/08/31 11:27:50;;;;;;;0.95;0.90;;;;;;;25.29;61.08;102292.66;5026040;28;20116;-74
2022/08/31 11:30:28;;;;;;;4.57;1.00;;;;;;;25.59;59.71;102294.66;5046939;28;20389;-74
2022/08/31 11:33:01;;;;;;;1.80;1.10;;;;;;;25.69;56.81;102283.66;5045135;28;20484;-75
2022/08/31 11:36:02;;;;;;;2.78;0.90;;;;;;;25.76;56.05;102282.63;5046333;28;20060;-74
2022/08/31 11:38:51;;;;;;;7.95;1.00;;;;;;;25.96;54.18;102287.47;5036164;28;20381;-75
2022/08/31 11:41:41;;;;;;;9.70;0.82;;;;;;;25.88;53.62;102282.31;5039520;28;20028;-74
2022/08/31 11:44:29;;;;;;;2.88;0.80;;;;;;;26.18;52.56;102274.38;5046550;28;20033;-77
2022/08/31 11:47:11;;;;;;;2.28;0.98;;;;;;;26.36;51.40;102264.03;5039314;28;20033;-74